sensor_id;sensor_type;location;lat;lon;timestamp;temperature;humidity
56478;DHT22;42382;53.210;5.772;2024-01-30T00:01:37;6.40;92.60
56478;DHT22;42382;53.210;5.772;2024-01-30T00:04:03;6.30;92.60
56478;DHT22;42382;53.210;5.772;2024-01-30T00:06:29;6.40;92.70
56478;DHT22;42382;53.210;5.772;2024-01-30T00:08:54;6.40;92.70
56478;DHT22;42382;53.210;5.772;2024-01-30T00:11:20;6.30;92.70
56478;DHT22;42382;53.210;5.772;2024-01-30T00:13:46;6.30;92.70
56478;DHT22;42382;53.210;5.772;2024-01-30T00:16:24;6.30;92.70
56478;DHT22;42382;53.210;5.772;2024-01-30T00:18:53;6.30;92.80
56478;DHT22;42382;53.210;5.772;2024-01-30T00:21:20;6.30;92.80
56478;DHT22;42382;53.210;5.772;2024-01-30T00:23:46;6.30;92.80
56478;DHT22;42382;53.210;5.772;2024-01-30T00:26:12;6.30;92.80
56478;DHT22;42382;53.210;5.772;2024-01-30T00:28:38;6.30;92.80
56478;DHT22;42382;53.210;5.772;2024-01-30T00:31:04;6.30;92.90
56478;DHT22;42382;53.210;5.772;2024-01-30T00:33:30;6.30;92.80
56478;DHT22;42382;53.210;5.772;2024-01-30T00:35:56;6.30;92.90
56478;DHT22;42382;53.210;5.772;2024-01-30T00:38:22;6.30;92.90
56478;DHT22;42382;53.210;5.772;2024-01-30T00:40:48;6.30;92.90
56478;DHT22;42382;53.210;5.772;2024-01-30T00:43:13;6.30;93.00
56478;DHT22;42382;53.210;5.772;2024-01-30T00:45:39;6.30;93.00
56478;DHT22;42382;53.210;5.772;2024-01-30T00:48:05;6.20;93.00
56478;DHT22;42382;53.210;5.772;2024-01-30T00:50:31;6.20;93.00
56478;DHT22;42382;53.210;5.772;2024-01-30T00:52:56;6.20;93.10
56478;DHT22;42382;53.210;5.772;2024-01-30T00:55:22;6.20;93.10
56478;DHT22;42382;53.210;5.772;2024-01-30T00:57:51;6.20;93.10
56478;DHT22;42382;53.210;5.772;2024-01-30T01:00:16;6.20;93.10
56478;DHT22;42382;53.210;5.772;2024-01-30T01:02:43;6.20;93.20
56478;DHT22;42382;53.210;5.772;2024-01-30T01:05:08;6.10;93.10
56478;DHT22;42382;53.210;5.772;2024-01-30T01:07:34;6.10;93.20
56478;DHT22;42382;53.210;5.772;2024-01-30T01:10:00;6.10;93.10
56478;DHT22;42382;53.210;5.772;2024-01-30T01:12:26;6.10;93.20
56478;DHT22;42382;53.210;5.772;2024-01-30T01:14:51;6.10;93.20
56478;DHT22;42382;53.210;5.772;2024-01-30T01:17:17;6.10;93.20
56478;DHT22;42382;53.210;5.772;2024-01-30T01:19:44;6.10;93.30
56478;DHT22;42382;53.210;5.772;2024-01-30T01:22:09;6.10;93.30
56478;DHT22;42382;53.210;5.772;2024-01-30T01:24:36;6.10;93.30
56478;DHT22;42382;53.210;5.772;2024-01-30T01:27:02;6.10;93.40
56478;DHT22;42382;53.210;5.772;2024-01-30T01:29:27;6.10;93.40
56478;DHT22;42382;53.210;5.772;2024-01-30T01:31:56;6.10;93.50
56478;DHT22;42382;53.210;5.772;2024-01-30T01:34:21;6.10;93.50
56478;DHT22;42382;53.210;5.772;2024-01-30T01:36:47;6.10;93.60
56478;DHT22;42382;53.210;5.772;2024-01-30T01:39:13;6.10;93.60
56478;DHT22;42382;53.210;5.772;2024-01-30T01:41:39;6.10;93.60
56478;DHT22;42382;53.210;5.772;2024-01-30T01:44:04;6.10;93.70
56478;DHT22;42382;53.210;5.772;2024-01-30T01:46:32;6.20;93.70
56478;DHT22;42382;53.210;5.772;2024-01-30T01:48:58;6.20;93.80
56478;DHT22;42382;53.210;5.772;2024-01-30T01:51:27;6.20;93.80
56478;DHT22;42382;53.210;5.772;2024-01-30T01:53:57;6.30;93.80
56478;DHT22;42382;53.210;5.772;2024-01-30T01:56:23;6.20;93.80
56478;DHT22;42382;53.210;5.772;2024-01-30T01:58:50;6.20;93.80
56478;DHT22;42382;53.210;5.772;2024-01-30T02:01:19;6.30;93.80
56478;DHT22;42382;53.210;5.772;2024-01-30T02:03:46;6.30;93.90
56478;DHT22;42382;53.210;5.772;2024-01-30T02:06:16;6.30;93.80
56478;DHT22;42382;53.210;5.772;2024-01-30T02:08:42;6.30;93.80
56478;DHT22;42382;53.210;5.772;2024-01-30T02:11:08;6.30;93.90
56478;DHT22;42382;53.210;5.772;2024-01-30T02:13:35;6.30;93.90
56478;DHT22;42382;53.210;5.772;2024-01-30T02:16:01;6.30;93.90
56478;DHT22;42382;53.210;5.772;2024-01-30T02:18:27;6.30;93.90
56478;DHT22;42382;53.210;5.772;2024-01-30T02:20:54;6.30;93.90
56478;DHT22;42382;53.210;5.772;2024-01-30T02:23:24;6.30;93.90
56478;DHT22;42382;53.210;5.772;2024-01-30T02:25:50;6.20;93.90
56478;DHT22;42382;53.210;5.772;2024-01-30T02:28:19;6.30;93.80
56478;DHT22;42382;53.210;5.772;2024-01-30T02:30:45;6.20;93.90
56478;DHT22;42382;53.210;5.772;2024-01-30T02:33:12;6.30;93.90
56478;DHT22;42382;53.210;5.772;2024-01-30T02:35:37;6.30;93.90
56478;DHT22;42382;53.210;5.772;2024-01-30T02:38:03;6.30;94.00
56478;DHT22;42382;53.210;5.772;2024-01-30T02:40:29;6.30;93.90
56478;DHT22;42382;53.210;5.772;2024-01-30T02:42:55;6.30;94.00
56478;DHT22;42382;53.210;5.772;2024-01-30T02:45:21;6.30;93.90
56478;DHT22;42382;53.210;5.772;2024-01-30T02:47:47;6.30;94.00
56478;DHT22;42382;53.210;5.772;2024-01-30T02:50:12;6.30;94.00
56478;DHT22;42382;53.210;5.772;2024-01-30T02:52:38;6.40;94.00
56478;DHT22;42382;53.210;5.772;2024-01-30T02:55:04;6.40;94.10
56478;DHT22;42382;53.210;5.772;2024-01-30T02:57:30;6.40;94.00
56478;DHT22;42382;53.210;5.772;2024-01-30T02:59:55;6.40;94.00
56478;DHT22;42382;53.210;5.772;2024-01-30T03:02:21;6.40;94.00
56478;DHT22;42382;53.210;5.772;2024-01-30T03:04:47;6.40;94.00
56478;DHT22;42382;53.210;5.772;2024-01-30T03:07:12;6.40;94.00
56478;DHT22;42382;53.210;5.772;2024-01-30T03:09:38;6.40;94.00
56478;DHT22;42382;53.210;5.772;2024-01-30T03:12:07;6.40;94.00
56478;DHT22;42382;53.210;5.772;2024-01-30T03:14:33;6.40;93.90
56478;DHT22;42382;53.210;5.772;2024-01-30T03:16:58;6.40;93.90
56478;DHT22;42382;53.210;5.772;2024-01-30T03:19:24;6.40;93.90
56478;DHT22;42382;53.210;5.772;2024-01-30T03:21:50;6.30;93.90
56478;DHT22;42382;53.210;5.772;2024-01-30T03:24:16;6.30;93.90
56478;DHT22;42382;53.210;5.772;2024-01-30T03:26:42;6.30;93.80
56478;DHT22;42382;53.210;5.772;2024-01-30T03:29:08;6.30;93.80
56478;DHT22;42382;53.210;5.772;2024-01-30T03:31:34;6.20;93.80
56478;DHT22;42382;53.210;5.772;2024-01-30T03:34:00;6.30;93.90
56478;DHT22;42382;53.210;5.772;2024-01-30T03:36:26;6.20;93.90
56478;DHT22;42382;53.210;5.772;2024-01-30T03:38:52;6.30;93.90
56478;DHT22;42382;53.210;5.772;2024-01-30T03:41:18;6.30;93.90
56478;DHT22;42382;53.210;5.772;2024-01-30T03:43:43;6.30;93.90
56478;DHT22;42382;53.210;5.772;2024-01-30T03:46:09;6.30;93.90
56478;DHT22;42382;53.210;5.772;2024-01-30T03:48:37;6.30;93.90
56478;DHT22;42382;53.210;5.772;2024-01-30T03:51:02;6.30;94.00
56478;DHT22;42382;53.210;5.772;2024-01-30T03:53:28;6.30;93.90
56478;DHT22;42382;53.210;5.772;2024-01-30T03:55:54;6.30;94.00
56478;DHT22;42382;53.210;5.772;2024-01-30T03:58:19;6.30;94.00
56478;DHT22;42382;53.210;5.772;2024-01-30T04:00:45;6.40;94.00
56478;DHT22;42382;53.210;5.772;2024-01-30T04:03:10;6.30;94.00
56478;DHT22;42382;53.210;5.772;2024-01-30T04:05:39;6.30;94.10
56478;DHT22;42382;53.210;5.772;2024-01-30T04:08:05;6.40;94.10
56478;DHT22;42382;53.210;5.772;2024-01-30T04:10:30;6.40;94.20
56478;DHT22;42382;53.210;5.772;2024-01-30T04:12:56;6.40;94.10
56478;DHT22;42382;53.210;5.772;2024-01-30T04:15:21;6.40;94.10
56478;DHT22;42382;53.210;5.772;2024-01-30T04:17:50;6.40;94.10
56478;DHT22;42382;53.210;5.772;2024-01-30T04:20:16;6.40;94.20
56478;DHT22;42382;53.210;5.772;2024-01-30T04:22:45;6.40;94.20
56478;DHT22;42382;53.210;5.772;2024-01-30T04:25:11;6.40;94.20
56478;DHT22;42382;53.210;5.772;2024-01-30T04:27:37;6.40;94.20
56478;DHT22;42382;53.210;5.772;2024-01-30T04:30:03;6.40;94.20
56478;DHT22;42382;53.210;5.772;2024-01-30T04:32:29;6.40;94.20
56478;DHT22;42382;53.210;5.772;2024-01-30T04:34:55;6.40;94.20
56478;DHT22;42382;53.210;5.772;2024-01-30T04:37:21;6.40;94.20
56478;DHT22;42382;53.210;5.772;2024-01-30T04:39:46;6.40;94.20
56478;DHT22;42382;53.210;5.772;2024-01-30T04:42:12;6.40;94.20
56478;DHT22;42382;53.210;5.772;2024-01-30T04:44:37;6.40;94.20
56478;DHT22;42382;53.210;5.772;2024-01-30T04:47:03;6.40;94.20
56478;DHT22;42382;53.210;5.772;2024-01-30T04:49:31;6.40;94.20
56478;DHT22;42382;53.210;5.772;2024-01-30T04:51:57;6.40;94.20
56478;DHT22;42382;53.210;5.772;2024-01-30T04:54:23;6.40;94.20
56478;DHT22;42382;53.210;5.772;2024-01-30T04:56:48;6.40;94.20
56478;DHT22;42382;53.210;5.772;2024-01-30T04:59:14;6.50;94.30
56478;DHT22;42382;53.210;5.772;2024-01-30T05:01:39;6.50;94.20
56478;DHT22;42382;53.210;5.772;2024-01-30T05:04:08;6.50;94.30
56478;DHT22;42382;53.210;5.772;2024-01-30T05:06:34;6.50;94.30
56478;DHT22;42382;53.210;5.772;2024-01-30T05:09:00;6.50;94.20
56478;DHT22;42382;53.210;5.772;2024-01-30T05:11:25;6.50;94.20
56478;DHT22;42382;53.210;5.772;2024-01-30T05:13:51;6.60;94.30
56478;DHT22;42382;53.210;5.772;2024-01-30T05:16:16;6.60;94.20
56478;DHT22;42382;53.210;5.772;2024-01-30T05:18:42;6.60;94.20
56478;DHT22;42382;53.210;5.772;2024-01-30T05:21:08;6.60;94.30
56478;DHT22;42382;53.210;5.772;2024-01-30T05:23:33;6.60;94.20
56478;DHT22;42382;53.210;5.772;2024-01-30T05:25:59;6.70;94.30
56478;DHT22;42382;53.210;5.772;2024-01-30T05:28:26;6.70;94.20
56478;DHT22;42382;53.210;5.772;2024-01-30T05:30:52;6.60;94.20
56478;DHT22;42382;53.210;5.772;2024-01-30T05:33:17;6.70;94.20
56478;DHT22;42382;53.210;5.772;2024-01-30T05:35:43;6.70;94.20
56478;DHT22;42382;53.210;5.772;2024-01-30T05:38:09;6.70;94.20
56478;DHT22;42382;53.210;5.772;2024-01-30T05:40:34;6.70;94.20
56478;DHT22;42382;53.210;5.772;2024-01-30T05:43:00;6.70;94.20
56478;DHT22;42382;53.210;5.772;2024-01-30T05:45:26;6.70;94.20
56478;DHT22;42382;53.210;5.772;2024-01-30T05:47:53;6.80;94.20
56478;DHT22;42382;53.210;5.772;2024-01-30T05:50:19;6.80;94.10
56478;DHT22;42382;53.210;5.772;2024-01-30T05:52:45;6.80;94.20
56478;DHT22;42382;53.210;5.772;2024-01-30T05:55:12;6.80;94.20
56478;DHT22;42382;53.210;5.772;2024-01-30T05:57:38;6.80;94.10
56478;DHT22;42382;53.210;5.772;2024-01-30T06:00:05;6.80;94.10
56478;DHT22;42382;53.210;5.772;2024-01-30T06:02:31;6.80;94.10
56478;DHT22;42382;53.210;5.772;2024-01-30T06:04:56;6.80;94.10
56478;DHT22;42382;53.210;5.772;2024-01-30T06:07:22;6.80;94.10
56478;DHT22;42382;53.210;5.772;2024-01-30T06:09:48;6.80;94.10
56478;DHT22;42382;53.210;5.772;2024-01-30T06:12:13;6.90;94.10
56478;DHT22;42382;53.210;5.772;2024-01-30T06:14:39;6.80;94.10
56478;DHT22;42382;53.210;5.772;2024-01-30T06:17:05;6.80;94.10
56478;DHT22;42382;53.210;5.772;2024-01-30T06:19:30;6.90;94.10
56478;DHT22;42382;53.210;5.772;2024-01-30T06:21:59;6.90;94.10
56478;DHT22;42382;53.210;5.772;2024-01-30T06:24:25;6.90;94.10
56478;DHT22;42382;53.210;5.772;2024-01-30T06:26:51;6.90;94.10
56478;DHT22;42382;53.210;5.772;2024-01-30T06:29:16;6.90;94.10
56478;DHT22;42382;53.210;5.772;2024-01-30T06:31:42;6.90;94.10
56478;DHT22;42382;53.210;5.772;2024-01-30T06:34:08;6.90;94.10
56478;DHT22;42382;53.210;5.772;2024-01-30T06:36:34;6.90;94.00
56478;DHT22;42382;53.210;5.772;2024-01-30T06:39:00;6.90;94.00
56478;DHT22;42382;53.210;5.772;2024-01-30T06:41:26;6.90;94.10
56478;DHT22;42382;53.210;5.772;2024-01-30T06:43:52;6.90;94.10
56478;DHT22;42382;53.210;5.772;2024-01-30T06:46:17;6.90;94.10
56478;DHT22;42382;53.210;5.772;2024-01-30T06:48:43;6.90;94.00
56478;DHT22;42382;53.210;5.772;2024-01-30T06:51:10;7.00;94.10
56478;DHT22;42382;53.210;5.772;2024-01-30T06:53:36;6.90;94.00
56478;DHT22;42382;53.210;5.772;2024-01-30T06:56:02;6.90;94.00
56478;DHT22;42382;53.210;5.772;2024-01-30T06:58:27;6.90;94.00
56478;DHT22;42382;53.210;5.772;2024-01-30T07:00:54;6.90;94.10
56478;DHT22;42382;53.210;5.772;2024-01-30T07:03:20;6.90;94.00
56478;DHT22;42382;53.210;5.772;2024-01-30T07:05:45;7.00;94.00
56478;DHT22;42382;53.210;5.772;2024-01-30T07:08:15;7.00;94.00
56478;DHT22;42382;53.210;5.772;2024-01-30T07:10:43;6.90;94.00
56478;DHT22;42382;53.210;5.772;2024-01-30T07:13:09;6.90;94.00
56478;DHT22;42382;53.210;5.772;2024-01-30T07:15:35;6.90;94.00
56478;DHT22;42382;53.210;5.772;2024-01-30T07:18:02;7.00;94.10
56478;DHT22;42382;53.210;5.772;2024-01-30T07:20:28;6.90;94.00
56478;DHT22;42382;53.210;5.772;2024-01-30T07:22:55;7.00;94.00
56478;DHT22;42382;53.210;5.772;2024-01-30T07:25:24;7.00;94.00
56478;DHT22;42382;53.210;5.772;2024-01-30T07:27:55;7.00;94.00
56478;DHT22;42382;53.210;5.772;2024-01-30T07:30:21;7.00;94.00
56478;DHT22;42382;53.210;5.772;2024-01-30T07:32:48;7.10;94.00
56478;DHT22;42382;53.210;5.772;2024-01-30T07:35:14;7.00;94.00
56478;DHT22;42382;53.210;5.772;2024-01-30T07:37:39;7.00;94.00
56478;DHT22;42382;53.210;5.772;2024-01-30T07:40:06;7.00;94.00
56478;DHT22;42382;53.210;5.772;2024-01-30T07:42:32;7.10;94.10
56478;DHT22;42382;53.210;5.772;2024-01-30T07:44:58;7.10;94.10
56478;DHT22;42382;53.210;5.772;2024-01-30T07:47:24;7.10;94.00
56478;DHT22;42382;53.210;5.772;2024-01-30T07:49:49;7.10;94.00
56478;DHT22;42382;53.210;5.772;2024-01-30T07:52:15;7.20;94.00
56478;DHT22;42382;53.210;5.772;2024-01-30T07:54:51;7.30;94.10
56478;DHT22;42382;53.210;5.772;2024-01-30T07:57:16;7.40;94.10
56478;DHT22;42382;53.210;5.772;2024-01-30T07:59:43;7.40;94.00
56478;DHT22;42382;53.210;5.772;2024-01-30T08:02:10;7.50;94.00
56478;DHT22;42382;53.210;5.772;2024-01-30T08:04:36;7.60;93.90
56478;DHT22;42382;53.210;5.772;2024-01-30T08:07:01;7.60;93.90
56478;DHT22;42382;53.210;5.772;2024-01-30T08:09:27;7.70;93.90
56478;DHT22;42382;53.210;5.772;2024-01-30T08:11:52;7.80;93.90
56478;DHT22;42382;53.210;5.772;2024-01-30T08:14:18;7.90;93.90
56478;DHT22;42382;53.210;5.772;2024-01-30T08:16:44;7.90;94.10
56478;DHT22;42382;53.210;5.772;2024-01-30T08:19:09;8.00;94.00
56478;DHT22;42382;53.210;5.772;2024-01-30T08:21:35;8.10;93.90
56478;DHT22;42382;53.210;5.772;2024-01-30T08:24:05;8.20;93.80
56478;DHT22;42382;53.210;5.772;2024-01-30T08:26:32;8.20;93.80
56478;DHT22;42382;53.210;5.772;2024-01-30T08:28:58;8.20;93.70
56478;DHT22;42382;53.210;5.772;2024-01-30T08:31:23;8.30;93.70
56478;DHT22;42382;53.210;5.772;2024-01-30T08:33:49;8.30;93.50
56478;DHT22;42382;53.210;5.772;2024-01-30T08:36:16;8.40;93.60
56478;DHT22;42382;53.210;5.772;2024-01-30T08:38:42;8.40;93.50
56478;DHT22;42382;53.210;5.772;2024-01-30T08:41:08;8.40;93.50
56478;DHT22;42382;53.210;5.772;2024-01-30T08:43:34;8.50;93.50
56478;DHT22;42382;53.210;5.772;2024-01-30T08:46:00;8.50;93.50
56478;DHT22;42382;53.210;5.772;2024-01-30T08:48:26;8.60;93.50
56478;DHT22;42382;53.210;5.772;2024-01-30T08:50:51;8.60;93.50
56478;DHT22;42382;53.210;5.772;2024-01-30T08:53:17;8.60;93.40
56478;DHT22;42382;53.210;5.772;2024-01-30T08:55:43;8.60;93.40
56478;DHT22;42382;53.210;5.772;2024-01-30T08:58:08;8.60;93.40
56478;DHT22;42382;53.210;5.772;2024-01-30T09:00:37;8.70;93.50
56478;DHT22;42382;53.210;5.772;2024-01-30T09:03:03;8.70;93.40
56478;DHT22;42382;53.210;5.772;2024-01-30T09:05:29;8.70;93.30
56478;DHT22;42382;53.210;5.772;2024-01-30T09:07:54;8.70;93.20
56478;DHT22;42382;53.210;5.772;2024-01-30T09:10:20;8.80;93.10
56478;DHT22;42382;53.210;5.772;2024-01-30T09:12:46;8.80;93.10
56478;DHT22;42382;53.210;5.772;2024-01-30T09:15:12;8.80;93.10
56478;DHT22;42382;53.210;5.772;2024-01-30T09:17:37;8.90;93.10
56478;DHT22;42382;53.210;5.772;2024-01-30T09:20:04;8.90;93.10
56478;DHT22;42382;53.210;5.772;2024-01-30T09:22:32;8.90;93.00
56478;DHT22;42382;53.210;5.772;2024-01-30T09:24:58;8.90;93.00
56478;DHT22;42382;53.210;5.772;2024-01-30T09:27:24;8.90;93.00
56478;DHT22;42382;53.210;5.772;2024-01-30T09:29:49;8.90;93.00
56478;DHT22;42382;53.210;5.772;2024-01-30T09:32:15;8.90;93.00
56478;DHT22;42382;53.210;5.772;2024-01-30T09:34:41;9.00;93.00
56478;DHT22;42382;53.210;5.772;2024-01-30T09:37:07;8.90;93.10
56478;DHT22;42382;53.210;5.772;2024-01-30T09:39:33;9.00;93.10
56478;DHT22;42382;53.210;5.772;2024-01-30T09:42:17;9.00;93.20
56478;DHT22;42382;53.210;5.772;2024-01-30T09:44:47;9.00;93.10
56478;DHT22;42382;53.210;5.772;2024-01-30T09:47:16;9.00;93.10
56478;DHT22;42382;53.210;5.772;2024-01-30T09:49:43;9.10;93.10
56478;DHT22;42382;53.210;5.772;2024-01-30T09:52:09;9.10;93.10
56478;DHT22;42382;53.210;5.772;2024-01-30T09:54:36;9.10;93.10
56478;DHT22;42382;53.210;5.772;2024-01-30T09:57:03;9.10;93.00
56478;DHT22;42382;53.210;5.772;2024-01-30T09:59:29;9.10;93.00
56478;DHT22;42382;53.210;5.772;2024-01-30T10:01:55;9.10;93.00
56478;DHT22;42382;53.210;5.772;2024-01-30T10:04:22;9.10;93.00
56478;DHT22;42382;53.210;5.772;2024-01-30T10:06:47;9.20;93.00
56478;DHT22;42382;53.210;5.772;2024-01-30T10:09:13;9.20;93.00
56478;DHT22;42382;53.210;5.772;2024-01-30T10:11:39;9.20;93.00
56478;DHT22;42382;53.210;5.772;2024-01-30T10:14:04;9.20;93.00
56478;DHT22;42382;53.210;5.772;2024-01-30T10:16:30;9.20;93.00
56478;DHT22;42382;53.210;5.772;2024-01-30T10:18:56;9.20;92.90
56478;DHT22;42382;53.210;5.772;2024-01-30T10:21:22;9.20;92.90
56478;DHT22;42382;53.210;5.772;2024-01-30T10:23:47;9.20;92.90
56478;DHT22;42382;53.210;5.772;2024-01-30T10:26:13;9.10;92.90
56478;DHT22;42382;53.210;5.772;2024-01-30T10:28:41;9.10;92.90
56478;DHT22;42382;53.210;5.772;2024-01-30T10:31:07;9.10;92.90
56478;DHT22;42382;53.210;5.772;2024-01-30T10:33:33;9.20;92.90
56478;DHT22;42382;53.210;5.772;2024-01-30T10:36:03;9.10;92.90
56478;DHT22;42382;53.210;5.772;2024-01-30T10:38:30;9.10;92.80
56478;DHT22;42382;53.210;5.772;2024-01-30T10:41:00;9.10;92.80
56478;DHT22;42382;53.210;5.772;2024-01-30T10:43:35;9.10;92.80
56478;DHT22;42382;53.210;5.772;2024-01-30T10:48:36;9.10;92.90
56478;DHT22;42382;53.210;5.772;2024-01-30T10:51:09;9.10;92.90
56478;DHT22;42382;53.210;5.772;2024-01-30T10:53:36;9.10;92.90
56478;DHT22;42382;53.210;5.772;2024-01-30T10:56:03;9.10;92.90
56478;DHT22;42382;53.210;5.772;2024-01-30T10:58:30;9.10;92.90
56478;DHT22;42382;53.210;5.772;2024-01-30T11:00:56;9.00;92.80
56478;DHT22;42382;53.210;5.772;2024-01-30T11:03:23;9.00;92.90
56478;DHT22;42382;53.210;5.772;2024-01-30T11:05:50;9.00;92.90
56478;DHT22;42382;53.210;5.772;2024-01-30T11:08:26;9.00;92.90
56478;DHT22;42382;53.210;5.772;2024-01-30T11:10:57;8.90;92.90
56478;DHT22;42382;53.210;5.772;2024-01-30T11:13:30;9.00;93.00
56478;DHT22;42382;53.210;5.772;2024-01-30T11:16:00;9.00;93.00
56478;DHT22;42382;53.210;5.772;2024-01-30T11:18:29;8.90;93.00
56478;DHT22;42382;53.210;5.772;2024-01-30T11:20:59;9.00;93.10
56478;DHT22;42382;53.210;5.772;2024-01-30T11:23:28;9.10;93.20
56478;DHT22;42382;53.210;5.772;2024-01-30T11:25:54;9.10;93.10
56478;DHT22;42382;53.210;5.772;2024-01-30T11:28:21;9.10;93.10
56478;DHT22;42382;53.210;5.772;2024-01-30T11:30:47;9.10;93.20
56478;DHT22;42382;53.210;5.772;2024-01-30T11:33:31;9.10;93.20
56478;DHT22;42382;53.210;5.772;2024-01-30T11:35:58;9.10;93.20
56478;DHT22;42382;53.210;5.772;2024-01-30T11:38:27;9.00;93.20
56478;DHT22;42382;53.210;5.772;2024-01-30T11:40:55;9.00;93.20
56478;DHT22;42382;53.210;5.772;2024-01-30T11:43:23;9.00;93.20
56478;DHT22;42382;53.210;5.772;2024-01-30T11:45:49;8.90;93.30
56478;DHT22;42382;53.210;5.772;2024-01-30T11:48:15;8.90;93.30
56478;DHT22;42382;53.210;5.772;2024-01-30T11:50:40;8.90;93.40
56478;DHT22;42382;53.210;5.772;2024-01-30T11:53:06;8.90;93.40
56478;DHT22;42382;53.210;5.772;2024-01-30T11:55:32;8.90;93.50
56478;DHT22;42382;53.210;5.772;2024-01-30T11:57:58;8.90;93.40
56478;DHT22;42382;53.210;5.772;2024-01-30T12:00:24;9.00;93.50
56478;DHT22;42382;53.210;5.772;2024-01-30T12:02:51;8.90;93.40
56478;DHT22;42382;53.210;5.772;2024-01-30T12:05:21;8.90;93.40
56478;DHT22;42382;53.210;5.772;2024-01-30T12:07:47;8.90;93.40
56478;DHT22;42382;53.210;5.772;2024-01-30T12:10:13;8.90;93.40
56478;DHT22;42382;53.210;5.772;2024-01-30T12:12:46;8.90;93.50
56478;DHT22;42382;53.210;5.772;2024-01-30T12:15:13;8.90;93.50
56478;DHT22;42382;53.210;5.772;2024-01-30T12:17:38;8.90;93.60
56478;DHT22;42382;53.210;5.772;2024-01-30T12:22:37;8.90;93.70
56478;DHT22;42382;53.210;5.772;2024-01-30T12:25:13;8.90;93.70
56478;DHT22;42382;53.210;5.772;2024-01-30T12:27:42;8.90;93.70
56478;DHT22;42382;53.210;5.772;2024-01-30T12:30:13;8.90;93.80
56478;DHT22;42382;53.210;5.772;2024-01-30T12:32:41;8.90;93.80
56478;DHT22;42382;53.210;5.772;2024-01-30T12:35:10;9.00;93.90
56478;DHT22;42382;53.210;5.772;2024-01-30T12:37:37;9.00;93.80
56478;DHT22;42382;53.210;5.772;2024-01-30T12:40:03;9.00;93.80
56478;DHT22;42382;53.210;5.772;2024-01-30T12:42:29;9.00;93.70
56478;DHT22;42382;53.210;5.772;2024-01-30T12:44:57;9.00;93.80
56478;DHT22;42382;53.210;5.772;2024-01-30T12:47:23;9.00;93.80
56478;DHT22;42382;53.210;5.772;2024-01-30T12:49:48;9.00;93.80
56478;DHT22;42382;53.210;5.772;2024-01-30T12:52:16;8.90;93.80
56478;DHT22;42382;53.210;5.772;2024-01-30T12:54:42;9.00;93.80
56478;DHT22;42382;53.210;5.772;2024-01-30T12:57:08;8.90;93.80
56478;DHT22;42382;53.210;5.772;2024-01-30T12:59:33;8.90;93.70
56478;DHT22;42382;53.210;5.772;2024-01-30T13:02:00;8.90;93.70
56478;DHT22;42382;53.210;5.772;2024-01-30T13:04:27;8.80;93.80
56478;DHT22;42382;53.210;5.772;2024-01-30T13:06:53;8.90;93.80
56478;DHT22;42382;53.210;5.772;2024-01-30T13:09:18;8.80;93.90
56478;DHT22;42382;53.210;5.772;2024-01-30T13:11:44;8.80;93.80
56478;DHT22;42382;53.210;5.772;2024-01-30T13:14:09;8.80;93.90
56478;DHT22;42382;53.210;5.772;2024-01-30T13:16:35;8.80;93.90
56478;DHT22;42382;53.210;5.772;2024-01-30T13:19:01;8.70;94.00
56478;DHT22;42382;53.210;5.772;2024-01-30T13:21:27;8.70;94.00
56478;DHT22;42382;53.210;5.772;2024-01-30T13:23:53;8.70;94.10
56478;DHT22;42382;53.210;5.772;2024-01-30T13:26:20;8.70;94.20
56478;DHT22;42382;53.210;5.772;2024-01-30T13:28:46;8.70;94.20
56478;DHT22;42382;53.210;5.772;2024-01-30T13:31:13;8.80;94.20
56478;DHT22;42382;53.210;5.772;2024-01-30T13:33:39;8.80;94.20
56478;DHT22;42382;53.210;5.772;2024-01-30T13:36:06;8.80;94.30
56478;DHT22;42382;53.210;5.772;2024-01-30T13:38:32;8.70;94.30
56478;DHT22;42382;53.210;5.772;2024-01-30T13:40:58;8.70;94.30
56478;DHT22;42382;53.210;5.772;2024-01-30T13:43:23;8.70;94.40
56478;DHT22;42382;53.210;5.772;2024-01-30T13:45:49;8.70;94.40
56478;DHT22;42382;53.210;5.772;2024-01-30T13:48:15;8.70;94.40
56478;DHT22;42382;53.210;5.772;2024-01-30T13:50:40;8.70;94.40
56478;DHT22;42382;53.210;5.772;2024-01-30T13:53:06;8.60;94.50
56478;DHT22;42382;53.210;5.772;2024-01-30T13:55:31;8.70;94.40
56478;DHT22;42382;53.210;5.772;2024-01-30T13:57:57;8.70;94.50
56478;DHT22;42382;53.210;5.772;2024-01-30T14:00:23;8.60;94.50
56478;DHT22;42382;53.210;5.772;2024-01-30T14:02:50;8.70;94.60
56478;DHT22;42382;53.210;5.772;2024-01-30T14:05:16;8.60;94.60
56478;DHT22;42382;53.210;5.772;2024-01-30T14:07:43;8.60;94.60
56478;DHT22;42382;53.210;5.772;2024-01-30T14:10:09;8.60;94.70
56478;DHT22;42382;53.210;5.772;2024-01-30T14:12:39;8.70;94.70
56478;DHT22;42382;53.210;5.772;2024-01-30T14:15:06;8.70;94.70
56478;DHT22;42382;53.210;5.772;2024-01-30T14:17:32;8.60;94.60
56478;DHT22;42382;53.210;5.772;2024-01-30T14:19:57;8.60;94.80
56478;DHT22;42382;53.210;5.772;2024-01-30T14:22:23;8.60;94.70
56478;DHT22;42382;53.210;5.772;2024-01-30T14:24:48;8.60;94.70
56478;DHT22;42382;53.210;5.772;2024-01-30T14:27:14;8.60;94.70
56478;DHT22;42382;53.210;5.772;2024-01-30T14:29:39;8.60;94.70
56478;DHT22;42382;53.210;5.772;2024-01-30T14:32:07;8.60;94.70
56478;DHT22;42382;53.210;5.772;2024-01-30T14:34:32;8.60;94.70
56478;DHT22;42382;53.210;5.772;2024-01-30T14:36:58;8.50;94.70
56478;DHT22;42382;53.210;5.772;2024-01-30T14:39:24;8.50;94.80
56478;DHT22;42382;53.210;5.772;2024-01-30T14:41:52;8.50;94.80
56478;DHT22;42382;53.210;5.772;2024-01-30T14:44:18;8.50;94.80
56478;DHT22;42382;53.210;5.772;2024-01-30T14:46:43;8.50;94.70
56478;DHT22;42382;53.210;5.772;2024-01-30T14:49:09;8.50;94.80
56478;DHT22;42382;53.210;5.772;2024-01-30T14:51:35;8.40;94.90
56478;DHT22;42382;53.210;5.772;2024-01-30T14:54:00;8.50;94.90
56478;DHT22;42382;53.210;5.772;2024-01-30T14:56:27;8.40;94.80
56478;DHT22;42382;53.210;5.772;2024-01-30T14:58:53;8.40;94.90
56478;DHT22;42382;53.210;5.772;2024-01-30T15:01:18;8.40;94.80
56478;DHT22;42382;53.210;5.772;2024-01-30T15:03:45;8.30;94.80
56478;DHT22;42382;53.210;5.772;2024-01-30T15:06:13;8.30;94.90
56478;DHT22;42382;53.210;5.772;2024-01-30T15:08:38;8.30;94.80
56478;DHT22;42382;53.210;5.772;2024-01-30T15:11:04;8.20;94.90
56478;DHT22;42382;53.210;5.772;2024-01-30T15:13:30;8.20;94.90
56478;DHT22;42382;53.210;5.772;2024-01-30T15:15:56;8.10;94.80
56478;DHT22;42382;53.210;5.772;2024-01-30T15:18:22;8.10;94.80
56478;DHT22;42382;53.210;5.772;2024-01-30T15:20:49;8.00;94.90
56478;DHT22;42382;53.210;5.772;2024-01-30T15:23:15;8.00;94.90
56478;DHT22;42382;53.210;5.772;2024-01-30T15:25:41;8.00;94.90
56478;DHT22;42382;53.210;5.772;2024-01-30T15:28:07;8.00;95.00
56478;DHT22;42382;53.210;5.772;2024-01-30T15:30:34;7.90;95.00
56478;DHT22;42382;53.210;5.772;2024-01-30T15:32:59;7.90;95.00
56478;DHT22;42382;53.210;5.772;2024-01-30T15:35:25;7.90;95.00
56478;DHT22;42382;53.210;5.772;2024-01-30T15:37:51;7.90;95.00
56478;DHT22;42382;53.210;5.772;2024-01-30T15:40:17;7.80;95.00
56478;DHT22;42382;53.210;5.772;2024-01-30T15:42:44;7.80;95.00
56478;DHT22;42382;53.210;5.772;2024-01-30T15:45:09;7.70;95.00